Time;durP1;ratioP1;P1;durP2;ratioP2;P2;SDS_P1;SDS_P2;PMS_P1;PMS_P2;Temp;Humidity;BMP_temperature;BMP_pressure;BME280_temperature;BME280_humidity;BME280_pressure;Samples;Min_cycle;Max_cycle;Signal;HPM_P1;HPM_P2
2022/05/22 00:03:11;;;;;;;3.80;2.23;;;;;;;17.57;52.57;99009.91;6922008;28;20251;-81
2022/05/22 00:06:32;;;;;;;4.33;2.60;;;;;;;17.47;52.60;99009.69;6922139;28;20293;-80
2022/05/22 00:09:54;;;;;;;2.90;2.57;;;;;;;17.34;52.99;98997.16;6920909;28;20309;-81
2022/05/22 00:13:15;;;;;;;3.23;2.73;;;;;;;17.16;52.79;98977.47;6920785;28;20286;-81
2022/05/22 00:16:40;;;;;;;3.80;2.60;;;;;;;17.28;53.18;99003.56;6921105;28;20198;-81
2022/05/22 00:20:04;;;;;;;4.53;2.53;;;;;;;17.37;52.62;98991.22;6920712;28;20281;-80
2022/05/22 00:23:28;;;;;;;3.23;2.60;;;;;;;17.30;52.67;98995.16;6921294;28;20224;-81
2022/05/22 00:26:49;;;;;;;3.20;2.70;;;;;;;17.04;53.31;98985.66;6921193;28;20334;-80
2022/05/22 00:30:12;;;;;;;4.27;3.10;;;;;;;17.10;53.05;98986.59;6920424;28;20255;-80
2022/05/22 00:33:36;;;;;;;3.00;2.57;;;;;;;17.35;52.57;98987.09;6921480;28;20216;-80
2022/05/22 00:36:58;;;;;;;3.83;2.57;;;;;;;17.36;52.52;98983.28;6921752;28;20212;-80
2022/05/22 00:40:19;;;;;;;3.17;2.87;;;;;;;16.93;52.90;98944.84;6920378;28;20282;-81
2022/05/22 00:43:44;;;;;;;2.97;2.67;;;;;;;16.98;52.72;98981.19;6921501;28;20202;-81
2022/05/22 00:47:05;;;;;;;3.10;2.80;;;;;;;16.71;53.22;98984.69;6921758;28;20203;-81
2022/05/22 00:50:29;;;;;;;2.80;2.60;;;;;;;16.77;53.91;98961.94;6920507;28;20305;-80
2022/05/22 00:53:54;;;;;;;2.77;2.57;;;;;;;17.12;52.99;98977.13;6921985;28;20258;-80
2022/05/22 00:57:19;;;;;;;2.70;2.50;;;;;;;16.67;54.38;98964.44;6921814;28;20211;-80
2022/05/22 01:00:40;;;;;;;2.77;2.50;;;;;;;16.98;53.30;98981.19;6921384;28;20254;-80
2022/05/22 01:04:03;;;;;;;2.90;2.70;;;;;;;16.46;53.53;98907.94;6921172;28;20212;-80
2022/05/22 01:07:26;;;;;;;4.17;2.73;;;;;;;16.85;53.70;98969.72;6921248;28;20212;-80
2022/05/22 01:10:48;;;;;;;4.07;2.90;;;;;;;16.56;54.04;98971.56;6921147;28;20271;-80
2022/05/22 01:14:12;;;;;;;3.23;2.80;;;;;;;16.87;53.21;98962.16;6919215;28;20198;-81
2022/05/22 01:17:39;;;;;;;3.57;2.73;;;;;;;16.77;53.25;98951.88;6919140;28;20760;-81
2022/05/22 01:21:00;;;;;;;4.03;2.93;;;;;;;15.88;54.91;98950.63;6920125;28;20217;-81
2022/05/22 01:24:23;;;;;;;3.60;3.30;;;;;;;15.48;57.66;98942.31;6921460;28;20357;-81
2022/05/22 01:27:45;;;;;;;3.80;3.30;;;;;;;15.82;56.67;98936.06;6924285;28;20365;-80
2022/05/22 01:31:07;;;;;;;3.20;2.60;;;;;;;15.90;56.24;98934.91;6924516;28;20577;-81
2022/05/22 01:34:29;;;;;;;3.30;3.10;;;;;;;15.76;56.35;98928.03;6925182;28;20238;-80
2022/05/22 01:37:51;;;;;;;3.23;2.87;;;;;;;15.74;56.92;98958.16;6923902;28;20321;-80
2022/05/22 01:41:13;;;;;;;6.30;3.37;;;;;;;16.02;56.72;98960.19;6924489;28;20231;-81
2022/05/22 01:44:35;;;;;;;3.33;2.87;;;;;;;16.03;55.93;98934.66;6924955;28;20205;-81
2022/05/22 01:47:57;;;;;;;6.10;3.20;;;;;;;16.50;55.41;98968.97;6924101;28;20723;-81
2022/05/22 01:51:18;;;;;;;2.77;2.47;;;;;;;16.80;54.01;98964.19;6924278;28;20211;-81
2022/05/22 01:54:40;;;;;;;3.10;2.80;;;;;;;16.33;53.94;98898.09;6928209;28;20687;-81
2022/05/22 01:58:06;;;;;;;3.97;2.67;;;;;;;16.62;54.06;98953.44;6923906;28;20225;-81
2022/05/22 02:01:28;;;;;;;3.23;2.93;;;;;;;16.33;54.66;98927.22;6924142;28;20704;-79
2022/05/22 02:04:50;;;;;;;2.90;2.70;;;;;;;16.08;55.30;98935.63;6924877;28;20219;-81
2022/05/22 02:08:22;;;;;;;5.53;2.80;;;;;;;15.99;55.63;98957.97;6924456;28;20269;-80
2022/05/22 02:11:43;;;;;;;3.47;2.90;;;;;;;15.75;56.72;98945.41;6924019;28;20214;-81
2022/05/22 02:15:08;;;;;;;3.40;3.10;;;;;;;15.79;56.85;98942.00;6924379;28;20191;-81
2022/05/22 02:18:30;;;;;;;4.57;3.30;;;;;;;15.93;56.90;98942.59;6923844;28;20702;-81
2022/05/22 02:21:51;;;;;;;3.23;2.93;;;;;;;15.78;56.45;98920.47;6924793;28;20224;-80
2022/05/22 02:25:14;;;;;;;5.67;3.40;;;;;;;16.13;56.37;98932.19;6924310;28;20665;-80
2022/05/22 02:28:36;;;;;;;3.53;3.10;;;;;;;16.01;56.16;98931.34;6923936;28;20382;-81
2022/05/22 02:31:59;;;;;;;3.30;3.00;;;;;;;15.64;56.10;98865.50;6924859;28;20230;-80
2022/05/22 02:35:21;;;;;;;3.57;3.27;;;;;;;15.84;55.99;98854.28;6924303;28;20203;-81
2022/05/22 02:38:42;;;;;;;3.53;3.10;;;;;;;15.60;55.65;98817.28;6924163;28;20702;-81
2022/05/22 02:42:05;;;;;;;4.03;3.00;;;;;;;16.03;56.20;98905.59;6924250;28;20230;-80
2022/05/22 02:45:30;;;;;;;3.17;2.97;;;;;;;15.94;56.41;98925.22;6924743;28;20215;-80
2022/05/22 02:48:53;;;;;;;3.33;3.03;;;;;;;16.42;55.51;98920.34;6928487;28;20228;-80
2022/05/22 02:52:14;;;;;;;4.03;3.13;;;;;;;16.63;54.82;98912.38;6942530;28;20188;-81
2022/05/22 02:55:36;;;;;;;4.13;2.87;;;;;;;16.27;55.40;98917.28;6934646;28;20207;-80
2022/05/22 02:58:58;;;;;;;3.37;3.07;;;;;;;16.46;55.56;98916.09;6928731;28;20246;-80
2022/05/22 03:02:19;;;;;;;3.00;2.73;;;;;;;16.62;54.19;98902.56;6942481;28;20227;-81
2022/05/22 03:09:21;;;;;;;3.17;2.90;;;;;;;16.44;53.51;98880.09;6921925;28;20278;-81
2022/05/22 03:12:43;;;;;;;3.33;2.83;;;;;;;15.70;54.85;98866.47;6922212;28;20218;-81
2022/05/22 03:16:05;;;;;;;3.10;2.90;;;;;;;15.75;55.21;98886.44;6923237;28;20184;-81
2022/05/22 03:19:27;;;;;;;3.67;3.27;;;;;;;15.76;56.04;98858.16;6922942;28;20685;-81
2022/05/22 03:22:50;;;;;;;3.57;3.17;;;;;;;15.82;55.85;98880.88;6923495;28;20229;-80
2022/05/22 03:26:11;;;;;;;3.50;3.20;;;;;;;15.93;56.17;98880.06;6923171;28;20249;-81
2022/05/22 03:29:33;;;;;;;3.43;3.13;;;;;;;16.10;55.97;98870.91;6922413;28;20708;-79
2022/05/22 03:32:54;;;;;;;3.20;2.90;;;;;;;16.32;55.06;98871.13;6922984;28;20203;-81
2022/05/22 03:36:16;;;;;;;7.50;3.20;;;;;;;16.03;55.08;98866.66;6922685;28;20206;-81
2022/05/22 03:39:39;;;;;;;3.93;3.20;;;;;;;16.15;55.60;98871.03;6921220;28;20259;-81
2022/05/22 03:43:00;;;;;;;4.10;3.70;;;;;;;15.54;57.36;98873.44;6922431;28;20204;-81
2022/05/22 03:46:22;;;;;;;4.67;3.50;;;;;;;15.74;57.21;98865.75;6922691;28;20217;-81
2022/05/22 03:49:43;;;;;;;3.90;3.37;;;;;;;15.83;56.52;98828.16;6922326;28;20235;-80
2022/05/22 03:53:05;;;;;;;4.43;3.30;;;;;;;15.59;57.31;98868.13;6922768;28;20207;-81
2022/05/22 03:56:28;;;;;;;4.33;3.40;;;;;;;15.84;56.99;98855.13;6934696;28;20203;-81
2022/05/22 03:59:50;;;;;;;4.60;3.33;;;;;;;16.19;55.78;98872.22;6949108;28;20279;-81
2022/05/22 04:03:12;;;;;;;3.27;2.97;;;;;;;16.23;55.21;98857.06;6949260;28;20261;-80
2022/05/22 04:06:33;;;;;;;4.33;3.63;;;;;;;15.95;56.08;98840.69;6949168;28;20199;-81
2022/05/22 04:09:57;;;;;;;3.27;2.93;;;;;;;16.15;55.63;98865.59;6949258;28;20233;-80
2022/05/22 04:13:20;;;;;;;4.07;3.10;;;;;;;16.12;56.15;98854.38;6949130;28;20204;-80
2022/05/22 04:16:41;;;;;;;6.10;3.00;;;;;;;16.08;56.17;98851.31;6949037;28;20203;-81
2022/05/22 04:20:04;;;;;;;6.17;3.40;;;;;;;15.94;56.38;98854.50;6949038;28;20293;-80
2022/05/22 04:27:07;;;;;;;3.60;3.20;;;;;;;15.64;57.56;98842.94;6949845;28;20288;-81
2022/05/22 04:30:30;;;;;;;4.00;3.63;;;;;;;15.79;57.73;98849.56;6948584;28;20234;-81
2022/05/22 04:33:52;;;;;;;5.13;3.83;;;;;;;15.88;57.28;98850.03;6950105;28;20215;-80
2022/05/22 04:37:13;;;;;;;4.20;3.30;;;;;;;16.27;56.68;98836.47;6950225;28;20203;-80
2022/05/22 04:40:35;;;;;;;4.50;3.40;;;;;;;16.29;56.66;98831.59;6949324;28;20235;-81
2022/05/22 04:43:56;;;;;;;4.73;3.60;;;;;;;16.33;56.42;98826.53;6949524;28;20210;-81
2022/05/22 04:47:19;;;;;;;5.30;3.60;;;;;;;16.48;55.99;98829.59;6949167;28;20209;-81
2022/05/22 04:50:41;;;;;;;3.57;3.27;;;;;;;16.36;55.78;98805.09;6949464;28;20229;-80
2022/05/22 04:54:03;;;;;;;3.60;3.30;;;;;;;16.80;55.45;98831.56;6950112;28;20270;-80
2022/05/22 04:57:24;;;;;;;4.40;3.33;;;;;;;16.85;55.86;98850.75;6948943;28;20207;-80
2022/05/22 05:00:46;;;;;;;3.47;3.17;;;;;;;17.06;55.02;98846.50;6952656;28;20269;-80
2022/05/22 05:04:09;;;;;;;3.60;3.30;;;;;;;16.98;54.97;98827.84;6955639;28;20195;-81
2022/05/22 05:07:31;;;;;;;3.70;3.40;;;;;;;17.45;54.39;98837.41;6953900;28;20203;-80
2022/05/22 05:10:52;;;;;;;3.80;3.37;;;;;;;17.43;53.38;98820.44;6954355;28;20614;-80
2022/05/22 05:14:14;;;;;;;4.37;2.97;;;;;;;18.56;51.27;98830.53;6953696;28;20210;-81
2022/05/22 05:17:35;;;;;;;4.30;2.97;;;;;;;19.02;50.40;98807.25;6954287;28;20242;-81
2022/05/22 05:21:01;;;;;;;3.20;2.90;;;;;;;19.10;50.24;98825.94;6955599;28;20250;-81
2022/05/22 05:24:22;;;;;;;3.33;2.70;;;;;;;19.96;48.63;98817.31;6953603;28;20211;-81
2022/05/22 05:27:44;;;;;;;2.83;2.53;;;;;;;20.15;47.31;98772.84;6952253;28;20212;-81
2022/05/22 05:31:06;;;;;;;3.57;2.77;;;;;;;19.67;48.63;98813.28;6952884;28;20211;-81
2022/05/22 05:34:27;;;;;;;3.93;2.50;;;;;;;19.69;48.87;98811.94;6953378;28;20209;-81
2022/05/22 05:37:51;;;;;;;3.53;3.10;;;;;;;18.93;50.36;98812.34;6953473;28;20767;-81
2022/05/22 05:41:12;;;;;;;4.00;2.60;;;;;;;19.43;50.28;98825.69;6953236;28;20354;-81
2022/05/22 05:44:34;;;;;;;3.13;2.70;;;;;;;19.73;49.46;98813.06;6952938;28;20210;-81
2022/05/22 05:47:57;;;;;;;2.80;2.60;;;;;;;20.30;47.54;98792.06;6952649;28;20230;-80
2022/05/22 05:51:18;;;;;;;2.80;2.60;;;;;;;21.04;45.91;98814.53;6952672;28;20291;-79
2022/05/22 05:54:41;;;;;;;5.83;3.10;;;;;;;21.39;45.44;98807.97;6951846;28;20308;-79
2022/05/22 05:58:03;;;;;;;3.33;2.80;;;;;;;21.67;45.62;98812.09;6927179;28;20230;-79
2022/05/22 06:01:25;;;;;;;2.70;2.50;;;;;;;21.90;44.25;98782.13;6924773;28;20248;-79
2022/05/22 06:04:47;;;;;;;3.37;2.70;;;;;;;21.85;44.55;98789.56;6924309;28;20552;-79
2022/05/22 06:08:08;;;;;;;3.77;2.23;;;;;;;21.20;46.04;98792.31;6923996;28;20216;-79
2022/05/22 06:11:32;;;;;;;4.83;2.53;;;;;;;20.94;45.91;98798.03;6922862;28;20222;-79
2022/05/22 06:14:54;;;;;;;2.30;2.13;;;;;;;21.35;44.92;98773.94;6924175;28;20223;-79
2022/05/22 06:18:16;;;;;;;4.83;2.40;;;;;;;21.23;45.35;98778.88;6923783;28;20818;-80
2022/05/22 06:21:37;;;;;;;2.93;2.30;;;;;;;21.76;45.30;98781.06;6924636;28;20232;-83
2022/05/22 06:24:59;;;;;;;3.80;2.70;;;;;;;22.08;43.69;98781.50;6941577;28;20225;-83
2022/05/22 06:28:22;;;;;;;3.53;2.30;;;;;;;23.24;41.13;98779.84;6946456;28;20856;-82
2022/05/22 06:31:44;;;;;;;2.57;2.37;;;;;;;24.13;40.26;98760.00;6952950;28;20294;-81
2022/05/22 06:35:07;;;;;;;4.27;2.40;;;;;;;24.05;38.96;98705.53;6952535;28;20207;-81
2022/05/22 06:42:13;;;;;;;3.57;2.97;;;;;;;24.06;38.90;98727.28;6946975;28;20213;-82
2022/05/22 06:45:35;;;;;;;5.50;2.90;;;;;;;24.90;38.08;98754.03;6950808;28;20214;-79
2022/05/22 06:48:57;;;;;;;3.67;2.40;;;;;;;25.79;35.86;98771.03;6944619;28;20262;-79
2022/05/22 06:52:20;;;;;;;4.07;2.10;;;;;;;26.20;35.12;98771.13;6954755;28;20201;-82
2022/05/22 06:55:41;;;;;;;3.97;2.20;;;;;;;25.01;37.26;98767.38;6948201;28;20730;-82
2022/05/22 06:59:03;;;;;;;5.30;2.33;;;;;;;24.06;37.93;98776.06;6944752;28;20220;-82
2022/05/22 07:02:28;;;;;;;5.30;2.50;;;;;;;24.26;39.18;98773.06;6950034;28;20230;-82
2022/05/22 07:05:50;;;;;;;2.70;2.30;;;;;;;23.62;39.99;98776.22;6925325;28;20234;-82
2022/05/22 07:09:12;;;;;;;5.03;2.33;;;;;;;22.78;41.59;98769.44;6951566;28;20233;-80
2022/05/22 07:12:33;;;;;;;2.50;1.87;;;;;;;23.29;41.54;98782.56;6945325;28;20705;-82
2022/05/22 07:15:59;;;;;;;3.40;2.10;;;;;;;23.74;40.35;98779.41;6969120;28;20262;-82
2022/05/22 07:19:22;;;;;;;2.97;2.10;;;;;;;24.12;39.47;98780.41;6944243;28;20265;-81
2022/05/22 07:22:44;;;;;;;3.77;2.07;;;;;;;25.33;37.97;98784.03;6961610;28;20295;-80
2022/05/22 07:26:06;;;;;;;3.93;2.13;;;;;;;24.47;38.79;98769.78;6974002;28;20214;-82
2022/05/22 07:29:27;;;;;;;2.53;2.10;;;;;;;24.37;38.94;98719.47;6961427;28;20254;-81
2022/05/22 07:32:49;;;;;;;5.37;2.13;;;;;;;25.20;37.72;98764.59;6952412;28;20207;-82
2022/05/22 07:36:12;;;;;;;3.83;2.40;;;;;;;25.38;38.27;98769.31;6936667;28;20287;-82
2022/05/22 07:39:34;;;;;;;4.40;2.20;;;;;;;24.60;39.23;98760.00;6952222;28;20220;-81
2022/05/22 07:42:56;;;;;;;3.27;2.10;;;;;;;24.90;39.16;98767.84;6960073;28;20230;-81
2022/05/22 07:46:18;;;;;;;2.60;2.40;;;;;;;24.94;38.38;98738.50;6948781;28;20214;-81
2022/05/22 07:53:16;;;;;;;6.53;2.30;;;;;;;25.21;37.20;98730.34;6956784;28;20207;-81
2022/05/22 07:56:38;;;;;;;4.90;2.50;;;;;;;25.10;38.00;98743.50;6963931;28;20207;-82
2022/05/22 07:59:59;;;;;;;2.00;1.90;;;;;;;26.09;36.29;98729.06;6947847;28;20340;-83
2022/05/22 08:03:21;;;;;;;2.63;2.10;;;;;;;25.90;35.15;98714.50;6964299;28;20233;-82
2022/05/22 08:06:42;;;;;;;1.83;1.60;;;;;;;26.88;34.05;98739.53;6953120;28;20196;-82
2022/05/22 08:10:08;;;;;;;2.43;2.20;;;;;;;25.08;35.40;98726.41;6965272;28;20238;-82
2022/05/22 08:13:30;;;;;;;2.20;1.70;;;;;;;26.66;31.28;98724.84;6953116;28;20211;-82
2022/05/22 08:16:54;;;;;;;3.07;2.00;;;;;;;27.30;31.01;98716.94;6952137;28;20253;-82
2022/05/22 08:20:17;;;;;;;2.00;1.60;;;;;;;27.37;31.78;98711.75;6952250;28;20227;-83
2022/05/22 08:23:38;;;;;;;2.10;1.70;;;;;;;27.85;29.57;98695.28;6950298;28;20227;-80
2022/05/22 08:27:01;;;;;;;2.47;1.70;;;;;;;28.32;29.56;98705.56;6948132;28;20206;-81
2022/05/22 08:30:24;;;;;;;1.77;1.67;;;;;;;28.18;28.82;98707.66;6948791;28;20238;-81
2022/05/22 08:33:46;;;;;;;1.93;1.50;;;;;;;27.29;30.44;98689.53;6945209;28;20301;-82
2022/05/22 08:37:07;;;;;;;1.80;1.67;;;;;;;27.24;29.48;98686.94;6956301;28;20205;-82
2022/05/22 08:40:34;;;;;;;3.93;1.67;;;;;;;27.47;30.25;98686.56;6954647;28;20683;-83
2022/05/22 08:44:06;;;;;;;2.90;1.50;;;;;;;27.49;29.09;98677.97;6953705;28;20559;-84
2022/05/22 08:47:32;;;;;;;1.53;1.43;;;;;;;28.68;29.55;98676.44;6955969;28;20185;-80
2022/05/22 08:50:57;;;;;;;3.33;1.60;;;;;;;28.13;27.58;98663.44;6961404;28;20236;-81
2022/05/22 08:54:24;;;;;;;2.70;1.70;;;;;;;27.80;29.34;98673.25;6957577;28;20202;-81
2022/05/22 09:01:47;;;;;;;1.30;1.20;;;;;;;28.54;28.22;98658.31;6954105;28;20228;-81
2022/05/22 09:05:11;;;;;;;2.40;1.50;;;;;;;28.62;27.77;98604.78;6939392;28;20309;-82
2022/05/22 09:08:39;;;;;;;3.70;1.90;;;;;;;28.89;28.21;98660.75;6933285;28;20235;-81
2022/05/22 09:12:12;;;;;;;2.50;1.37;;;;;;;29.70;27.06;98645.78;6954542;28;20188;-82
2022/05/22 09:15:42;;;;;;;2.77;1.53;;;;;;;28.44;27.38;98651.13;6954514;28;20191;-81
2022/05/22 09:19:09;;;;;;;1.90;1.50;;;;;;;28.78;27.16;98648.34;6946282;28;20219;-80
2022/05/22 09:22:34;;;;;;;2.67;1.73;;;;;;;27.76;28.13;98628.69;6966318;28;20221;-80
2022/05/22 09:26:02;;;;;;;1.30;1.20;;;;;;;28.60;26.99;98634.81;6951321;28;20295;-80
2022/05/22 09:29:37;;;;;;;1.03;0.90;;;;;;;28.46;27.28;98617.50;6943197;28;20235;-80
2022/05/22 09:33:09;;;;;;;1.00;1.00;;;;;;;29.87;25.19;98628.19;6947910;28;20212;-81
2022/05/22 09:36:39;;;;;;;3.37;1.50;;;;;;;29.05;26.44;98592.50;6936574;28;20216;-81
2022/05/22 09:40:15;;;;;;;2.23;1.50;;;;;;;29.12;25.32;98605.88;6936994;28;20279;-81
2022/05/22 09:43:51;;;;;;;1.47;1.30;;;;;;;28.25;27.54;98627.56;6951200;28;20216;-81
2022/05/22 09:47:27;;;;;;;1.30;1.20;;;;;;;28.00;27.57;98628.31;6950345;28;20218;-80
2022/05/22 09:50:56;;;;;;;2.87;1.30;;;;;;;28.74;26.68;98627.97;6949972;28;20224;-81
2022/05/22 09:54:30;;;;;;;2.83;1.50;;;;;;;28.19;27.88;98613.03;6951527;28;20292;-81
2022/05/22 09:58:02;;;;;;;3.63;1.77;;;;;;;27.95;27.21;98615.41;6952138;28;20215;-80
2022/05/22 10:01:28;;;;;;;3.03;1.60;;;;;;;28.04;27.74;98602.41;6952595;28;20211;-81
2022/05/22 10:04:55;;;;;;;3.07;1.53;;;;;;;27.99;28.24;98612.81;6945016;28;20193;-81
2022/05/22 10:08:25;;;;;;;2.20;1.50;;;;;;;28.91;27.02;98604.91;6924611;28;20237;-81
2022/05/22 10:11:59;;;;;;;2.13;1.67;;;;;;;28.66;27.74;98609.34;6940243;28;20202;-80
2022/05/22 10:15:30;;;;;;;1.47;1.30;;;;;;;29.44;26.64;98583.91;6938990;28;20200;-80
2022/05/22 10:19:13;;;;;;;2.57;1.70;;;;;;;29.56;26.71;98602.69;6931695;28;20220;-78
2022/05/22 10:22:59;;;;;;;2.70;1.70;;;;;;;29.49;26.61;98586.47;6867400;28;20333;-80
2022/05/22 10:26:31;;;;;;;1.97;1.67;;;;;;;29.89;26.13;98587.00;6864576;28;20775;-78
2022/05/22 10:29:58;;;;;;;3.23;1.73;;;;;;;28.74;28.22;98596.59;6867024;28;20285;-82
2022/05/22 10:33:24;;;;;;;4.07;1.60;;;;;;;27.78;28.14;98582.09;6868158;28;20215;-81
2022/05/22 10:36:50;;;;;;;1.83;1.63;;;;;;;29.21;27.18;98570.59;6860431;28;20341;-81
2022/05/22 10:40:16;;;;;;;2.40;1.80;;;;;;;29.52;26.17;98580.28;6852390;28;20297;-80
2022/05/22 10:43:40;;;;;;;1.77;1.50;;;;;;;30.12;25.77;98544.66;6859136;28;20229;-80
2022/05/22 10:47:04;;;;;;;1.70;1.40;;;;;;;29.87;24.44;98551.19;6864319;28;20278;-79
2022/05/22 10:50:27;;;;;;;1.70;1.47;;;;;;;30.66;23.84;98563.06;6865149;28;20220;-80
2022/05/22 10:53:51;;;;;;;4.17;1.43;;;;;;;31.06;23.31;98558.56;6864750;28;20296;-80
2022/05/22 10:57:15;;;;;;;3.13;1.50;;;;;;;31.04;23.34;98544.19;6852669;28;20210;-78
2022/05/22 11:00:37;;;;;;;3.37;1.77;;;;;;;31.73;23.57;98549.78;6938523;28;20715;-80
2022/05/22 11:04:06;;;;;;;1.80;1.20;;;;;;;31.41;23.31;98542.28;6947191;28;20717;-79
2022/05/22 11:07:30;;;;;;;2.43;1.70;;;;;;;31.82;23.05;98536.50;6942681;28;20205;-78
2022/05/22 11:10:52;;;;;;;1.63;1.40;;;;;;;31.62;22.96;98499.22;6939123;28;20232;-82
2022/05/22 11:14:15;;;;;;;2.23;1.50;;;;;;;31.03;23.76;98516.66;6949817;28;20702;-77
2022/05/22 11:17:36;;;;;;;3.50;1.70;;;;;;;30.28;24.06;98520.66;6950382;28;20219;-80
2022/05/22 11:21:03;;;;;;;2.30;1.30;;;;;;;30.14;23.73;98516.53;6937152;28;20217;-79
2022/05/22 11:24:31;;;;;;;1.87;1.40;;;;;;;29.40;24.77;98494.03;6948966;28;20315;-79
2022/05/22 11:27:59;;;;;;;2.13;1.70;;;;;;;30.20;23.66;98507.59;6951761;28;21490;-79
2022/05/22 11:31:31;;;;;;;2.80;1.97;;;;;;;30.14;23.59;98506.19;6939547;28;20204;-79
2022/05/22 11:35:07;;;;;;;2.03;1.47;;;;;;;29.00;25.37;98506.63;6949110;28;20453;-79
2022/05/22 11:38:46;;;;;;;2.20;1.53;;;;;;;31.42;24.50;98496.56;6949475;28;20233;-79
2022/05/22 11:42:13;;;;;;;2.40;1.40;;;;;;;30.95;22.95;98510.03;6944876;28;20223;-79
2022/05/22 11:45:44;;;;;;;2.73;1.37;;;;;;;30.27;23.74;98496.78;6948872;28;20591;-79
2022/05/22 11:49:23;;;;;;;2.10;1.50;;;;;;;31.57;22.51;98496.66;6938468;28;20253;-79
2022/05/22 11:52:56;;;;;;;3.43;1.80;;;;;;;31.02;24.09;98492.75;6939139;28;20214;-80
2022/05/22 11:56:41;;;;;;;2.30;1.70;;;;;;;31.74;22.54;98496.47;6950051;28;20617;-79
2022/05/22 12:00:14;;;;;;;1.97;1.10;;;;;;;31.70;22.02;98459.25;6949387;28;20298;-79
2022/05/22 12:03:55;;;;;;;3.10;1.40;;;;;;;30.72;23.11;98467.03;6941515;28;20345;-79
2022/05/22 12:07:34;;;;;;;1.53;1.43;;;;;;;28.57;24.70;98460.66;6948832;28;20567;-79
2022/05/22 12:10:58;;;;;;;2.70;1.70;;;;;;;29.87;24.40;98459.44;6948610;28;20263;-79
2022/05/22 12:14:27;;;;;;;1.57;1.30;;;;;;;29.56;24.77;98463.75;6949268;28;20207;-77
2022/05/22 12:17:55;;;;;;;1.50;1.40;;;;;;;29.33;24.50;98406.81;6948481;28;20698;-80
2022/05/22 12:21:23;;;;;;;2.57;1.70;;;;;;;28.73;24.31;98462.56;6929373;28;20198;-79
2022/05/22 12:24:50;;;;;;;2.30;1.70;;;;;;;30.04;22.95;98461.25;6940707;28;20204;-80
2022/05/22 12:28:29;;;;;;;1.47;1.37;;;;;;;30.84;23.56;98452.34;6939307;28;20627;-80
2022/05/22 12:31:54;;;;;;;1.23;1.20;;;;;;;31.80;22.92;98453.22;6930036;28;20217;-80
2022/05/22 12:35:17;;;;;;;1.77;1.20;;;;;;;31.12;23.58;98444.94;6922612;28;20360;-80
2022/05/22 12:38:49;;;;;;;1.67;1.50;;;;;;;29.80;24.68;98444.44;6926608;28;20226;-80
2022/05/22 12:42:15;;;;;;;2.37;1.60;;;;;;;30.29;24.34;98447.16;6943413;28;20222;-80
2022/05/22 12:45:38;;;;;;;3.23;1.50;;;;;;;29.78;24.61;98425.31;6945779;28;20763;-80
2022/05/22 12:49:08;;;;;;;1.90;1.60;;;;;;;30.99;23.57;98407.94;6945449;28;20277;-80
2022/05/22 12:52:31;;;;;;;3.43;1.40;;;;;;;30.21;24.52;98417.47;6950188;28;20235;-80
2022/05/22 12:55:52;;;;;;;2.20;1.50;;;;;;;30.62;23.38;98410.97;6960282;28;20205;-80
2022/05/22 12:59:21;;;;;;;2.00;1.57;;;;;;;31.30;22.68;98410.19;6961544;28;20251;-80
2022/05/22 13:02:44;;;;;;;1.87;1.40;;;;;;;31.63;22.42;98402.44;6957918;28;20223;-79
2022/05/22 13:06:16;;;;;;;2.40;1.60;;;;;;;31.46;22.56;98406.31;6960652;28;20209;-80
2022/05/22 13:09:40;;;;;;;1.50;1.23;;;;;;;31.33;22.06;98395.53;6961732;28;20224;-81
2022/05/22 13:13:06;;;;;;;1.03;1.00;;;;;;;31.41;21.59;98395.41;6961445;28;20200;-79
2022/05/22 13:16:28;;;;;;;2.13;1.20;;;;;;;30.13;23.66;98382.19;6950487;28;20206;-80
2022/05/22 13:19:52;;;;;;;3.67;1.53;;;;;;;29.56;23.74;98372.88;6948296;28;20231;-79
2022/05/22 13:23:28;;;;;;;1.10;1.10;;;;;;;30.09;22.55;98366.50;6953903;28;20238;-80
2022/05/22 13:26:57;;;;;;;2.07;1.40;;;;;;;30.50;23.03;98380.34;6926720;28;20196;-80
2022/05/22 13:30:22;;;;;;;2.03;1.30;;;;;;;30.76;22.24;98351.06;6924992;28;20233;-80
2022/05/22 13:33:45;;;;;;;3.00;1.70;;;;;;;30.54;22.93;98343.13;6926194;28;20679;-80
2022/05/22 13:37:09;;;;;;;2.07;1.57;;;;;;;29.41;22.94;98364.28;6943251;28;20209;-80
2022/05/22 13:40:36;;;;;;;3.13;1.50;;;;;;;29.96;21.60;98348.16;6952002;28;20233;-80
2022/05/22 13:44:30;;;;;;;1.70;1.47;;;;;;;29.36;23.01;98340.28;6951751;28;20697;-80
2022/05/22 13:48:08;;;;;;;2.20;1.67;;;;;;;30.59;21.64;98333.72;6941622;28;20214;-80
2022/05/22 13:55:38;;;;;;;2.03;1.10;;;;;;;30.15;20.00;98356.81;6952112;28;20786;-80
2022/05/22 13:59:00;;;;;;;1.30;1.20;;;;;;;29.67;20.07;98337.94;6951571;28;20724;-80
2022/05/22 14:02:24;;;;;;;1.80;1.20;;;;;;;30.01;21.66;98357.09;6952181;28;20235;-80
2022/05/22 14:05:47;;;;;;;1.63;1.40;;;;;;;30.87;21.00;98343.06;6929240;28;20702;-80
2022/05/22 14:09:19;;;;;;;0.83;0.83;;;;;;;29.94;21.11;98317.91;6923239;28;20280;-80
2022/05/22 14:12:45;;;;;;;4.27;1.77;;;;;;;30.34;21.89;98324.53;6938666;28;20699;-80
2022/05/22 14:16:08;;;;;;;1.73;1.47;;;;;;;30.04;21.68;98325.84;6951949;28;20208;-80
2022/05/22 14:19:33;;;;;;;1.63;1.30;;;;;;;29.83;21.63;98316.72;6951017;28;20321;-81
2022/05/22 14:23:09;;;;;;;2.40;1.33;;;;;;;30.87;20.66;98298.50;6931985;28;20259;-80
2022/05/22 14:26:31;;;;;;;1.40;1.30;;;;;;;30.57;21.61;98331.31;6933306;28;20242;-80
2022/05/22 14:30:05;;;;;;;1.23;1.13;;;;;;;29.79;20.62;98315.75;6950455;28;20231;-80
2022/05/22 14:33:28;;;;;;;2.97;1.30;;;;;;;30.29;20.66;98324.75;6951387;28;20207;-80
2022/05/22 14:36:51;;;;;;;2.77;1.10;;;;;;;29.97;21.23;98314.47;6951335;28;20235;-80
2022/05/22 14:40:22;;;;;;;2.17;1.47;;;;;;;30.27;21.06;98348.50;6945401;28;20283;-80
2022/05/22 14:43:45;;;;;;;1.60;1.23;;;;;;;29.68;21.33;98330.41;6946833;28;20229;-80
2022/05/22 14:47:08;;;;;;;1.23;1.13;;;;;;;29.87;21.28;98325.16;6951029;28;20737;-80
2022/05/22 14:50:30;;;;;;;1.40;1.30;;;;;;;29.76;22.55;98340.66;6950737;28;20241;-80
2022/05/22 14:53:56;;;;;;;1.20;1.10;;;;;;;29.85;21.56;98350.53;6951577;28;20210;-80
2022/05/22 14:57:21;;;;;;;1.70;1.17;;;;;;;30.26;21.05;98355.25;6951860;28;20708;-80
2022/05/22 15:00:45;;;;;;;2.07;1.60;;;;;;;30.49;21.44;98362.81;6951560;28;20227;-80
2022/05/22 15:04:20;;;;;;;2.57;1.60;;;;;;;30.48;21.42;98338.13;6951154;28;20228;-80
2022/05/22 15:07:51;;;;;;;1.70;0.97;;;;;;;29.92;21.86;98344.44;6951432;28;20199;-80
2022/05/22 15:11:14;;;;;;;1.50;1.23;;;;;;;29.52;21.94;98352.44;6951503;28;20199;-80
2022/05/22 15:14:43;;;;;;;1.20;1.10;;;;;;;29.54;21.80;98350.16;6950715;28;20237;-80
2022/05/22 15:18:08;;;;;;;3.43;1.33;;;;;;;29.76;21.93;98341.47;6950406;28;20231;-80
2022/05/22 15:21:31;;;;;;;3.07;1.30;;;;;;;29.33;21.79;98290.16;6950767;28;20202;-80
2022/05/22 15:28:33;;;;;;;1.40;1.30;;;;;;;29.34;21.72;98330.66;6950271;28;20230;-81
2022/05/22 15:31:55;;;;;;;1.67;1.57;;;;;;;28.88;22.71;98326.03;6950596;28;20214;-81
2022/05/22 15:35:22;;;;;;;1.43;1.20;;;;;;;28.25;23.09;98315.03;6950169;28;20209;-81
2022/05/22 15:38:56;;;;;;;1.77;1.53;;;;;;;29.05;21.86;98306.53;6945630;28;20291;-81
2022/05/22 15:42:20;;;;;;;1.57;1.40;;;;;;;28.70;22.01;98316.19;6948228;28;20201;-81
2022/05/22 15:45:41;;;;;;;2.93;1.73;;;;;;;29.13;22.42;98324.28;6947396;28;20222;-83
2022/05/22 15:52:52;;;;;;;1.97;1.40;;;;;;;29.05;24.10;98336.25;6941411;28;20209;-82
2022/05/22 15:56:15;;;;;;;5.17;1.53;;;;;;;29.62;23.01;98327.06;6938826;28;20215;-81
2022/05/22 15:59:37;;;;;;;3.77;1.90;;;;;;;29.22;23.72;98333.38;6949527;28;20253;-81
2022/05/22 16:02:59;;;;;;;2.20;1.37;;;;;;;29.57;22.70;98321.69;6948792;28;20224;-81
2022/05/22 16:06:21;;;;;;;3.43;1.80;;;;;;;29.45;22.95;98323.56;6945037;28;20248;-81
2022/05/22 16:09:43;;;;;;;1.80;1.60;;;;;;;29.42;23.10;98324.25;6943596;28;20372;-81
2022/05/22 16:13:06;;;;;;;1.73;1.50;;;;;;;29.42;22.94;98319.50;6949511;28;20218;-81
2022/05/22 16:16:29;;;;;;;2.77;2.50;;;;;;;28.59;22.89;98311.31;6943441;28;20224;-81
2022/05/22 16:19:52;;;;;;;4.47;2.30;;;;;;;28.48;23.78;98290.69;6948121;28;20216;-81
2022/05/22 16:23:14;;;;;;;1.97;1.40;;;;;;;28.84;24.20;98290.97;6933587;28;20750;-80
2022/05/22 16:26:35;;;;;;;2.73;1.40;;;;;;;29.00;23.71;98280.91;6948362;28;20273;-80
2022/05/22 16:29:58;;;;;;;2.77;1.53;;;;;;;28.14;24.42;98252.75;6943456;28;20229;-80
2022/05/22 16:33:20;;;;;;;1.57;1.30;;;;;;;28.49;24.94;98240.38;6950375;28;20209;-80
2022/05/22 16:36:41;;;;;;;3.27;1.40;;;;;;;28.65;24.75;98276.69;6950456;28;20623;-80